Foraker, Oklahoma
Current Conditions -  °F | °C
As of 4:53 PM on Saturday 20 Dec 2014 (Local Time) from KPNC Reporting Station
Overcast Overcast  
Wind Chill: 42°   Ceiling: 2700
Heat Index: 46°   Visibility: 10mi
Dew Point: 35°   Wind: 7mph
Humidity: 66%   Direction: 210°SSW
Pressure: 30.13"   Gusts: NA
Location:  36.8783°N, 96.6155°W
Report Text: KPNC 202253Z AUTO 21006KT 10SM OVC027 08/02 A3013 RMK AO2 SLP205 T00780017
Loading
Personal Weather Stations






























Interactive Weather Map New forecast layout! Learn more

10-Day Weather Forecast

Advertisements
Track Severe Weather on mobile